sensor_id;sensor_type;location;lat;lon;timestamp;temperature;humidity
1361;DHT22;674;45.552;-122.600;2023-12-22T00:00:05;8.30;1.00
1361;DHT22;674;45.552;-122.600;2023-12-22T00:02:33;8.10;1.00
1361;DHT22;674;45.552;-122.600;2023-12-22T00:05:02;8.40;1.00
1361;DHT22;674;45.552;-122.600;2023-12-22T00:07:31;8.00;1.00
1361;DHT22;674;45.552;-122.600;2023-12-22T00:10:00;7.90;1.00
1361;DHT22;674;45.552;-122.600;2023-12-22T00:12:28;7.80;1.00
1361;DHT22;674;45.552;-122.600;2023-12-22T00:14:57;7.80;1.00
1361;DHT22;674;45.552;-122.600;2023-12-22T00:17:25;7.60;1.00
1361;DHT22;674;45.552;-122.600;2023-12-22T00:19:54;7.70;1.00
1361;DHT22;674;45.552;-122.600;2023-12-22T00:22:27;7.60;1.00
1361;DHT22;674;45.552;-122.600;2023-12-22T00:24:55;7.60;1.00
1361;DHT22;674;45.552;-122.600;2023-12-22T00:27:23;7.60;1.00
1361;DHT22;674;45.552;-122.600;2023-12-22T00:29:52;7.50;1.00
1361;DHT22;674;45.552;-122.600;2023-12-22T00:32:21;7.20;1.00
1361;DHT22;674;45.552;-122.600;2023-12-22T00:34:49;7.30;1.00
1361;DHT22;674;45.552;-122.600;2023-12-22T00:37:18;7.20;1.00
1361;DHT22;674;45.552;-122.600;2023-12-22T00:39:47;7.20;1.00
1361;DHT22;674;45.552;-122.600;2023-12-22T00:42:15;7.20;1.00
1361;DHT22;674;45.552;-122.600;2023-12-22T00:44:44;6.90;1.00
1361;DHT22;674;45.552;-122.600;2023-12-22T00:47:12;6.80;5.00
1361;DHT22;674;45.552;-122.600;2023-12-22T00:49:41;6.90;9.80
1361;DHT22;674;45.552;-122.600;2023-12-22T00:52:10;6.80;5.70
1361;DHT22;674;45.552;-122.600;2023-12-22T00:54:38;6.80;8.50
1361;DHT22;674;45.552;-122.600;2023-12-22T00:57:07;6.70;9.10
1361;DHT22;674;45.552;-122.600;2023-12-22T00:59:35;6.60;8.10
1361;DHT22;674;45.552;-122.600;2023-12-22T01:02:04;6.60;26.70
1361;DHT22;674;45.552;-122.600;2023-12-22T01:04:33;6.30;49.50
1361;DHT22;674;45.552;-122.600;2023-12-22T01:07:01;6.30;54.60
1361;DHT22;674;45.552;-122.600;2023-12-22T01:09:30;6.30;53.90
1361;DHT22;674;45.552;-122.600;2023-12-22T01:11:58;6.50;55.80
1361;DHT22;674;45.552;-122.600;2023-12-22T01:14:30;6.10;51.90
1361;DHT22;674;45.552;-122.600;2023-12-22T01:16:59;6.20;68.30
1361;DHT22;674;45.552;-122.600;2023-12-22T01:19:28;6.00;68.70
1361;DHT22;674;45.552;-122.600;2023-12-22T01:21:57;6.20;85.20
1361;DHT22;674;45.552;-122.600;2023-12-22T01:24:25;5.90;91.30
1361;DHT22;674;45.552;-122.600;2023-12-22T01:26:54;5.90;94.50
1361;DHT22;674;45.552;-122.600;2023-12-22T01:29:22;5.90;99.90
1361;DHT22;674;45.552;-122.600;2023-12-22T01:31:51;5.90;99.90
1361;DHT22;674;45.552;-122.600;2023-12-22T01:34:20;6.20;99.90
1361;DHT22;674;45.552;-122.600;2023-12-22T01:36:48;6.00;99.90
1361;DHT22;674;45.552;-122.600;2023-12-22T01:39:18;5.90;99.90
1361;DHT22;674;45.552;-122.600;2023-12-22T01:41:46;5.90;99.90
1361;DHT22;674;45.552;-122.600;2023-12-22T01:44:15;5.70;99.90
1361;DHT22;674;45.552;-122.600;2023-12-22T01:46:43;5.70;99.90
1361;DHT22;674;45.552;-122.600;2023-12-22T01:49:12;6.00;99.90
1361;DHT22;674;45.552;-122.600;2023-12-22T01:51:41;6.00;99.90
1361;DHT22;674;45.552;-122.600;2023-12-22T01:54:11;5.60;99.90
1361;DHT22;674;45.552;-122.600;2023-12-22T01:56:42;6.00;99.90
1361;DHT22;674;45.552;-122.600;2023-12-22T01:59:11;5.90;99.90
1361;DHT22;674;45.552;-122.600;2023-12-22T02:01:41;6.00;99.90
1361;DHT22;674;45.552;-122.600;2023-12-22T02:04:14;5.80;99.90
1361;DHT22;674;45.552;-122.600;2023-12-22T02:06:43;5.70;99.90
1361;DHT22;674;45.552;-122.600;2023-12-22T02:09:12;5.70;99.90
1361;DHT22;674;45.552;-122.600;2023-12-22T02:11:40;5.70;99.90
1361;DHT22;674;45.552;-122.600;2023-12-22T02:14:09;6.00;99.90
1361;DHT22;674;45.552;-122.600;2023-12-22T02:19:43;5.90;99.90
1361;DHT22;674;45.552;-122.600;2023-12-22T02:22:12;5.50;99.90
1361;DHT22;674;45.552;-122.600;2023-12-22T02:24:41;5.60;99.90
1361;DHT22;674;45.552;-122.600;2023-12-22T02:30:24;5.70;99.90
1361;DHT22;674;45.552;-122.600;2023-12-22T02:32:59;5.50;99.90
1361;DHT22;674;45.552;-122.600;2023-12-22T02:35:29;5.70;99.90
1361;DHT22;674;45.552;-122.600;2023-12-22T02:38:00;5.80;99.90
1361;DHT22;674;45.552;-122.600;2023-12-22T02:40:30;6.00;99.90
1361;DHT22;674;45.552;-122.600;2023-12-22T02:43:00;5.90;99.90
1361;DHT22;674;45.552;-122.600;2023-12-22T02:45:29;5.90;99.90
1361;DHT22;674;45.552;-122.600;2023-12-22T02:47:58;5.90;99.90
1361;DHT22;674;45.552;-122.600;2023-12-22T02:50:27;5.70;99.90
1361;DHT22;674;45.552;-122.600;2023-12-22T02:52:56;6.00;99.90
1361;DHT22;674;45.552;-122.600;2023-12-22T02:55:24;6.00;99.90
1361;DHT22;674;45.552;-122.600;2023-12-22T02:57:53;5.80;99.90
1361;DHT22;674;45.552;-122.600;2023-12-22T03:00:21;5.80;99.90
1361;DHT22;674;45.552;-122.600;2023-12-22T03:02:50;5.70;99.90
1361;DHT22;674;45.552;-122.600;2023-12-22T03:05:18;5.70;99.90
1361;DHT22;674;45.552;-122.600;2023-12-22T03:07:47;5.90;99.90
1361;DHT22;674;45.552;-122.600;2023-12-22T03:10:16;6.00;99.90
1361;DHT22;674;45.552;-122.600;2023-12-22T03:12:44;5.90;99.90
1361;DHT22;674;45.552;-122.600;2023-12-22T03:15:13;5.90;99.90
1361;DHT22;674;45.552;-122.600;2023-12-22T03:17:42;5.70;99.90
1361;DHT22;674;45.552;-122.600;2023-12-22T03:20:13;5.90;99.90
1361;DHT22;674;45.552;-122.600;2023-12-22T03:22:42;5.90;99.90
1361;DHT22;674;45.552;-122.600;2023-12-22T03:25:11;5.90;99.90
1361;DHT22;674;45.552;-122.600;2023-12-22T03:27:40;5.70;99.90
1361;DHT22;674;45.552;-122.600;2023-12-22T03:30:09;6.00;99.90
1361;DHT22;674;45.552;-122.600;2023-12-22T03:32:38;5.80;99.90
1361;DHT22;674;45.552;-122.600;2023-12-22T03:35:06;5.70;99.90
1361;DHT22;674;45.552;-122.600;2023-12-22T03:37:35;5.90;99.90
1361;DHT22;674;45.552;-122.600;2023-12-22T03:40:04;5.60;99.90
1361;DHT22;674;45.552;-122.600;2023-12-22T03:42:33;5.60;99.90
1361;DHT22;674;45.552;-122.600;2023-12-22T03:45:01;5.70;99.90
1361;DHT22;674;45.552;-122.600;2023-12-22T03:47:30;5.60;99.90
1361;DHT22;674;45.552;-122.600;2023-12-22T03:49:58;5.30;99.90
1361;DHT22;674;45.552;-122.600;2023-12-22T03:52:27;5.70;99.90
1361;DHT22;674;45.552;-122.600;2023-12-22T03:54:56;5.90;99.90
1361;DHT22;674;45.552;-122.600;2023-12-22T03:57:24;5.70;99.90
1361;DHT22;674;45.552;-122.600;2023-12-22T03:59:53;5.50;99.90
1361;DHT22;674;45.552;-122.600;2023-12-22T04:02:22;5.50;99.90
1361;DHT22;674;45.552;-122.600;2023-12-22T04:04:51;5.80;99.90
1361;DHT22;674;45.552;-122.600;2023-12-22T04:07:19;5.90;99.90
1361;DHT22;674;45.552;-122.600;2023-12-22T04:09:48;5.40;99.90
1361;DHT22;674;45.552;-122.600;2023-12-22T04:12:16;5.60;99.90
1361;DHT22;674;45.552;-122.600;2023-12-22T04:14:45;5.30;99.90
1361;DHT22;674;45.552;-122.600;2023-12-22T04:17:13;5.60;99.90
1361;DHT22;674;45.552;-122.600;2023-12-22T04:19:41;5.70;99.90
1361;DHT22;674;45.552;-122.600;2023-12-22T04:22:10;5.40;99.90
1361;DHT22;674;45.552;-122.600;2023-12-22T04:24:39;5.40;99.90
1361;DHT22;674;45.552;-122.600;2023-12-22T04:27:07;5.30;99.90
1361;DHT22;674;45.552;-122.600;2023-12-22T04:29:35;5.60;99.90
1361;DHT22;674;45.552;-122.600;2023-12-22T04:32:04;5.60;99.90
1361;DHT22;674;45.552;-122.600;2023-12-22T04:34:33;5.60;99.90
1361;DHT22;674;45.552;-122.600;2023-12-22T04:37:01;5.60;99.90
1361;DHT22;674;45.552;-122.600;2023-12-22T04:39:30;5.60;99.90
1361;DHT22;674;45.552;-122.600;2023-12-22T04:41:58;5.60;99.90
1361;DHT22;674;45.552;-122.600;2023-12-22T04:44:27;5.60;99.90
1361;DHT22;674;45.552;-122.600;2023-12-22T04:46:55;5.30;99.90
1361;DHT22;674;45.552;-122.600;2023-12-22T04:49:24;5.30;99.90
1361;DHT22;674;45.552;-122.600;2023-12-22T04:51:52;5.60;99.90
1361;DHT22;674;45.552;-122.600;2023-12-22T04:54:22;5.40;99.90
1361;DHT22;674;45.552;-122.600;2023-12-22T04:56:50;5.30;99.90
1361;DHT22;674;45.552;-122.600;2023-12-22T04:59:19;5.70;99.90
1361;DHT22;674;45.552;-122.600;2023-12-22T05:01:47;5.40;99.90
1361;DHT22;674;45.552;-122.600;2023-12-22T05:04:16;5.20;99.90
1361;DHT22;674;45.552;-122.600;2023-12-22T05:06:45;5.20;99.90
1361;DHT22;674;45.552;-122.600;2023-12-22T05:09:15;5.00;99.90
1361;DHT22;674;45.552;-122.600;2023-12-22T05:11:43;5.20;99.90
1361;DHT22;674;45.552;-122.600;2023-12-22T05:14:12;5.20;99.90
1361;DHT22;674;45.552;-122.600;2023-12-22T05:16:40;5.10;99.90
1361;DHT22;674;45.552;-122.600;2023-12-22T05:19:09;5.10;99.90
1361;DHT22;674;45.552;-122.600;2023-12-22T05:21:37;5.60;99.90
1361;DHT22;674;45.552;-122.600;2023-12-22T05:24:07;5.30;99.90
1361;DHT22;674;45.552;-122.600;2023-12-22T05:26:35;5.20;99.90
1361;DHT22;674;45.552;-122.600;2023-12-22T05:29:03;5.30;99.90
1361;DHT22;674;45.552;-122.600;2023-12-22T05:31:32;5.10;99.90
1361;DHT22;674;45.552;-122.600;2023-12-22T05:34:02;5.30;99.90
1361;DHT22;674;45.552;-122.600;2023-12-22T05:36:31;5.30;99.90
1361;DHT22;674;45.552;-122.600;2023-12-22T05:39:00;5.10;99.90
1361;DHT22;674;45.552;-122.600;2023-12-22T05:41:29;5.30;99.90
1361;DHT22;674;45.552;-122.600;2023-12-22T05:43:57;5.20;99.90
1361;DHT22;674;45.552;-122.600;2023-12-22T05:46:26;5.10;99.90
1361;DHT22;674;45.552;-122.600;2023-12-22T05:48:55;5.30;99.90
1361;DHT22;674;45.552;-122.600;2023-12-22T05:51:28;5.00;99.90
1361;DHT22;674;45.552;-122.600;2023-12-22T05:53:58;5.00;99.90
1361;DHT22;674;45.552;-122.600;2023-12-22T05:56:27;5.30;99.90
1361;DHT22;674;45.552;-122.600;2023-12-22T05:58:55;5.00;99.90
1361;DHT22;674;45.552;-122.600;2023-12-22T06:01:24;5.10;99.90
1361;DHT22;674;45.552;-122.600;2023-12-22T06:03:52;5.10;99.90
1361;DHT22;674;45.552;-122.600;2023-12-22T06:06:22;5.00;99.90
1361;DHT22;674;45.552;-122.600;2023-12-22T06:08:51;5.00;99.90
1361;DHT22;674;45.552;-122.600;2023-12-22T06:11:19;5.00;99.90
1361;DHT22;674;45.552;-122.600;2023-12-22T06:13:48;5.30;99.90
1361;DHT22;674;45.552;-122.600;2023-12-22T06:16:16;5.20;99.90
1361;DHT22;674;45.552;-122.600;2023-12-22T06:18:46;5.30;99.90
1361;DHT22;674;45.552;-122.600;2023-12-22T06:21:14;5.10;99.90
1361;DHT22;674;45.552;-122.600;2023-12-22T06:23:43;5.30;99.90
1361;DHT22;674;45.552;-122.600;2023-12-22T06:26:12;5.00;99.90
1361;DHT22;674;45.552;-122.600;2023-12-22T06:28:41;5.40;99.90
1361;DHT22;674;45.552;-122.600;2023-12-22T06:31:17;5.30;99.90
1361;DHT22;674;45.552;-122.600;2023-12-22T06:33:47;5.30;99.90
1361;DHT22;674;45.552;-122.600;2023-12-22T06:36:24;5.00;99.90
1361;DHT22;674;45.552;-122.600;2023-12-22T06:38:53;5.00;99.90
1361;DHT22;674;45.552;-122.600;2023-12-22T06:41:27;5.00;99.90
1361;DHT22;674;45.552;-122.600;2023-12-22T06:43:58;5.40;99.90
1361;DHT22;674;45.552;-122.600;2023-12-22T06:46:30;5.10;99.90
1361;DHT22;674;45.552;-122.600;2023-12-22T06:48:59;5.50;99.90
1361;DHT22;674;45.552;-122.600;2023-12-22T06:51:32;5.50;99.90
1361;DHT22;674;45.552;-122.600;2023-12-22T06:54:04;5.30;99.90
1361;DHT22;674;45.552;-122.600;2023-12-22T06:56:34;5.40;99.90
1361;DHT22;674;45.552;-122.600;2023-12-22T06:59:03;5.40;99.90
1361;DHT22;674;45.552;-122.600;2023-12-22T07:01:33;5.10;99.90
1361;DHT22;674;45.552;-122.600;2023-12-22T07:04:04;5.60;99.90
1361;DHT22;674;45.552;-122.600;2023-12-22T07:06:35;5.20;99.90
1361;DHT22;674;45.552;-122.600;2023-12-22T07:11:43;5.40;99.90
1361;DHT22;674;45.552;-122.600;2023-12-22T07:14:12;5.20;99.90
1361;DHT22;674;45.552;-122.600;2023-12-22T07:16:41;5.60;99.90
1361;DHT22;674;45.552;-122.600;2023-12-22T07:19:13;5.10;99.90
1361;DHT22;674;45.552;-122.600;2023-12-22T07:21:42;5.20;99.90
1361;DHT22;674;45.552;-122.600;2023-12-22T07:24:13;5.10;99.90
1361;DHT22;674;45.552;-122.600;2023-12-22T07:26:43;5.30;99.90
1361;DHT22;674;45.552;-122.600;2023-12-22T07:29:14;5.50;99.90
1361;DHT22;674;45.552;-122.600;2023-12-22T07:31:43;5.50;99.90
1361;DHT22;674;45.552;-122.600;2023-12-22T07:34:13;5.50;99.90
1361;DHT22;674;45.552;-122.600;2023-12-22T07:36:43;5.30;99.90
1361;DHT22;674;45.552;-122.600;2023-12-22T07:39:25;5.40;99.90
1361;DHT22;674;45.552;-122.600;2023-12-22T07:41:53;5.30;99.90
1361;DHT22;674;45.552;-122.600;2023-12-22T07:44:23;5.50;99.90
1361;DHT22;674;45.552;-122.600;2023-12-22T07:46:59;5.00;99.90
1361;DHT22;674;45.552;-122.600;2023-12-22T07:49:30;5.00;99.90
1361;DHT22;674;45.552;-122.600;2023-12-22T07:51:59;5.00;99.90
1361;DHT22;674;45.552;-122.600;2023-12-22T07:54:30;5.00;99.90
1361;DHT22;674;45.552;-122.600;2023-12-22T07:56:58;4.70;99.90
1361;DHT22;674;45.552;-122.600;2023-12-22T07:59:27;4.70;99.90
1361;DHT22;674;45.552;-122.600;2023-12-22T08:01:58;5.30;99.90
1361;DHT22;674;45.552;-122.600;2023-12-22T08:04:27;5.00;99.90
1361;DHT22;674;45.552;-122.600;2023-12-22T08:06:56;4.90;99.90
1361;DHT22;674;45.552;-122.600;2023-12-22T08:09:25;5.00;99.90
1361;DHT22;674;45.552;-122.600;2023-12-22T08:11:53;5.00;99.90
1361;DHT22;674;45.552;-122.600;2023-12-22T08:14:24;5.30;99.90
1361;DHT22;674;45.552;-122.600;2023-12-22T08:16:52;5.00;99.90
1361;DHT22;674;45.552;-122.600;2023-12-22T08:19:21;5.00;99.90
1361;DHT22;674;45.552;-122.600;2023-12-22T08:21:53;5.20;99.90
1361;DHT22;674;45.552;-122.600;2023-12-22T08:24:23;5.00;99.90
1361;DHT22;674;45.552;-122.600;2023-12-22T08:26:52;5.00;99.90
1361;DHT22;674;45.552;-122.600;2023-12-22T08:29:21;5.10;99.90
1361;DHT22;674;45.552;-122.600;2023-12-22T08:31:49;5.10;99.90
1361;DHT22;674;45.552;-122.600;2023-12-22T08:34:18;5.20;99.90
1361;DHT22;674;45.552;-122.600;2023-12-22T08:36:46;5.00;99.90
1361;DHT22;674;45.552;-122.600;2023-12-22T08:39:15;5.20;99.90
1361;DHT22;674;45.552;-122.600;2023-12-22T08:41:44;5.00;99.90
1361;DHT22;674;45.552;-122.600;2023-12-22T08:44:13;5.30;99.90
1361;DHT22;674;45.552;-122.600;2023-12-22T08:46:45;5.30;99.90
1361;DHT22;674;45.552;-122.600;2023-12-22T08:49:13;5.30;99.90
1361;DHT22;674;45.552;-122.600;2023-12-22T08:51:42;5.00;99.90
1361;DHT22;674;45.552;-122.600;2023-12-22T08:54:11;5.00;99.90
1361;DHT22;674;45.552;-122.600;2023-12-22T08:56:40;5.00;99.90
1361;DHT22;674;45.552;-122.600;2023-12-22T08:59:08;5.30;99.90
1361;DHT22;674;45.552;-122.600;2023-12-22T09:01:36;5.30;99.90
1361;DHT22;674;45.552;-122.600;2023-12-22T09:04:05;5.30;99.90
1361;DHT22;674;45.552;-122.600;2023-12-22T09:06:36;5.10;99.90
1361;DHT22;674;45.552;-122.600;2023-12-22T09:09:04;5.20;99.90
1361;DHT22;674;45.552;-122.600;2023-12-22T09:11:34;5.30;99.90
1361;DHT22;674;45.552;-122.600;2023-12-22T09:14:05;5.30;99.90
1361;DHT22;674;45.552;-122.600;2023-12-22T09:16:38;5.00;99.90
1361;DHT22;674;45.552;-122.600;2023-12-22T09:19:06;5.60;99.90
1361;DHT22;674;45.552;-122.600;2023-12-22T09:21:35;5.60;99.90
1361;DHT22;674;45.552;-122.600;2023-12-22T09:24:04;5.30;99.90
1361;DHT22;674;45.552;-122.600;2023-12-22T09:26:33;5.40;99.90
1361;DHT22;674;45.552;-122.600;2023-12-22T09:29:01;5.40;99.90
1361;DHT22;674;45.552;-122.600;2023-12-22T09:31:30;5.40;99.90
1361;DHT22;674;45.552;-122.600;2023-12-22T09:34:00;5.40;99.90
1361;DHT22;674;45.552;-122.600;2023-12-22T09:36:29;5.60;99.90
1361;DHT22;674;45.552;-122.600;2023-12-22T09:38:57;5.80;99.90
1361;DHT22;674;45.552;-122.600;2023-12-22T09:41:27;5.30;99.90
1361;DHT22;674;45.552;-122.600;2023-12-22T09:43:56;5.30;99.90
1361;DHT22;674;45.552;-122.600;2023-12-22T09:46:27;5.90;99.90
1361;DHT22;674;45.552;-122.600;2023-12-22T09:48:57;5.80;99.90
1361;DHT22;674;45.552;-122.600;2023-12-22T09:51:27;5.70;99.90
1361;DHT22;674;45.552;-122.600;2023-12-22T09:53:57;5.60;99.90
1361;DHT22;674;45.552;-122.600;2023-12-22T09:56:30;6.00;99.90
1361;DHT22;674;45.552;-122.600;2023-12-22T09:58:59;5.80;99.90
1361;DHT22;674;45.552;-122.600;2023-12-22T10:01:28;6.00;99.90
1361;DHT22;674;45.552;-122.600;2023-12-22T10:03:58;6.20;99.90
1361;DHT22;674;45.552;-122.600;2023-12-22T10:06:26;6.00;99.90
1361;DHT22;674;45.552;-122.600;2023-12-22T10:08:56;5.90;99.90
1361;DHT22;674;45.552;-122.600;2023-12-22T10:11:26;5.80;99.90
1361;DHT22;674;45.552;-122.600;2023-12-22T10:13:56;5.80;99.90
1361;DHT22;674;45.552;-122.600;2023-12-22T10:16:24;5.70;99.90
1361;DHT22;674;45.552;-122.600;2023-12-22T10:18:54;6.10;99.90
1361;DHT22;674;45.552;-122.600;2023-12-22T10:21:22;6.00;99.90
1361;DHT22;674;45.552;-122.600;2023-12-22T10:23:51;6.00;99.90
1361;DHT22;674;45.552;-122.600;2023-12-22T10:26:20;6.10;99.90
1361;DHT22;674;45.552;-122.600;2023-12-22T10:28:49;6.00;99.90
1361;DHT22;674;45.552;-122.600;2023-12-22T10:31:18;6.00;99.90
1361;DHT22;674;45.552;-122.600;2023-12-22T10:33:47;6.00;99.90
1361;DHT22;674;45.552;-122.600;2023-12-22T10:36:17;6.10;99.90
1361;DHT22;674;45.552;-122.600;2023-12-22T10:38:45;5.90;99.90
1361;DHT22;674;45.552;-122.600;2023-12-22T10:41:14;6.10;99.90
1361;DHT22;674;45.552;-122.600;2023-12-22T10:43:43;5.90;99.90
1361;DHT22;674;45.552;-122.600;2023-12-22T10:46:12;6.20;99.90
1361;DHT22;674;45.552;-122.600;2023-12-22T10:48:41;6.10;99.90
1361;DHT22;674;45.552;-122.600;2023-12-22T10:51:10;6.20;99.90
1361;DHT22;674;45.552;-122.600;2023-12-22T10:53:42;6.30;99.90
1361;DHT22;674;45.552;-122.600;2023-12-22T10:56:11;6.50;99.90
1361;DHT22;674;45.552;-122.600;2023-12-22T10:58:40;6.20;99.90
1361;DHT22;674;45.552;-122.600;2023-12-22T11:01:13;6.30;99.90
1361;DHT22;674;45.552;-122.600;2023-12-22T11:03:44;6.50;99.90
1361;DHT22;674;45.552;-122.600;2023-12-22T11:06:16;6.30;99.90
1361;DHT22;674;45.552;-122.600;2023-12-22T11:08:47;6.50;99.90
1361;DHT22;674;45.552;-122.600;2023-12-22T11:11:32;6.00;99.90
1361;DHT22;674;45.552;-122.600;2023-12-22T11:14:01;6.30;99.90
1361;DHT22;674;45.552;-122.600;2023-12-22T11:16:31;6.50;99.90
1361;DHT22;674;45.552;-122.600;2023-12-22T11:19:04;6.30;99.90
1361;DHT22;674;45.552;-122.600;2023-12-22T11:21:35;6.60;99.90
1361;DHT22;674;45.552;-122.600;2023-12-22T11:24:05;6.50;99.90
1361;DHT22;674;45.552;-122.600;2023-12-22T11:26:35;6.10;99.90
1361;DHT22;674;45.552;-122.600;2023-12-22T11:29:05;6.40;99.90
1361;DHT22;674;45.552;-122.600;2023-12-22T11:31:36;6.20;99.90
1361;DHT22;674;45.552;-122.600;2023-12-22T11:34:05;6.50;99.90
1361;DHT22;674;45.552;-122.600;2023-12-22T11:36:43;6.50;99.90
1361;DHT22;674;45.552;-122.600;2023-12-22T11:39:13;6.60;99.90
1361;DHT22;674;45.552;-122.600;2023-12-22T11:41:43;6.20;99.90
1361;DHT22;674;45.552;-122.600;2023-12-22T11:44:12;6.60;99.90
1361;DHT22;674;45.552;-122.600;2023-12-22T11:46:41;6.50;99.90
1361;DHT22;674;45.552;-122.600;2023-12-22T11:49:10;6.30;99.90
1361;DHT22;674;45.552;-122.600;2023-12-22T11:51:43;6.50;99.90
1361;DHT22;674;45.552;-122.600;2023-12-22T11:54:49;6.30;99.90
1361;DHT22;674;45.552;-122.600;2023-12-22T11:57:35;6.50;99.90
1361;DHT22;674;45.552;-122.600;2023-12-22T12:03:06;6.50;99.90
1361;DHT22;674;45.552;-122.600;2023-12-22T12:05:37;6.60;99.90
1361;DHT22;674;45.552;-122.600;2023-12-22T12:08:09;6.40;99.90
1361;DHT22;674;45.552;-122.600;2023-12-22T12:10:54;6.30;99.90
1361;DHT22;674;45.552;-122.600;2023-12-22T12:13:23;6.30;99.90
1361;DHT22;674;45.552;-122.600;2023-12-22T12:15:55;6.50;99.90
1361;DHT22;674;45.552;-122.600;2023-12-22T12:18:30;6.10;99.90
1361;DHT22;674;45.552;-122.600;2023-12-22T12:21:02;6.20;99.90
1361;DHT22;674;45.552;-122.600;2023-12-22T12:23:31;6.60;99.90
1361;DHT22;674;45.552;-122.600;2023-12-22T12:26:00;6.50;99.90
1361;DHT22;674;45.552;-122.600;2023-12-22T12:28:30;6.50;99.90
1361;DHT22;674;45.552;-122.600;2023-12-22T12:31:08;6.50;99.90
1361;DHT22;674;45.552;-122.600;2023-12-22T12:33:38;6.60;99.90
1361;DHT22;674;45.552;-122.600;2023-12-22T12:36:07;6.60;99.90
1361;DHT22;674;45.552;-122.600;2023-12-22T12:41:32;6.30;99.90
1361;DHT22;674;45.552;-122.600;2023-12-22T12:44:04;6.30;99.90
1361;DHT22;674;45.552;-122.600;2023-12-22T12:46:38;6.10;99.90
1361;DHT22;674;45.552;-122.600;2023-12-22T12:49:08;6.20;99.90
1361;DHT22;674;45.552;-122.600;2023-12-22T12:51:47;6.20;99.90
1361;DHT22;674;45.552;-122.600;2023-12-22T12:54:16;6.20;99.90
1361;DHT22;674;45.552;-122.600;2023-12-22T12:56:46;6.20;99.90
1361;DHT22;674;45.552;-122.600;2023-12-22T12:59:16;6.60;99.90
1361;DHT22;674;45.552;-122.600;2023-12-22T13:01:49;6.00;99.90
1361;DHT22;674;45.552;-122.600;2023-12-22T13:04:17;6.20;99.90
1361;DHT22;674;45.552;-122.600;2023-12-22T13:06:47;6.20;99.90
1361;DHT22;674;45.552;-122.600;2023-12-22T13:09:17;6.50;99.90
1361;DHT22;674;45.552;-122.600;2023-12-22T13:11:46;6.30;99.90
1361;DHT22;674;45.552;-122.600;2023-12-22T13:14:24;6.50;99.90
1361;DHT22;674;45.552;-122.600;2023-12-22T13:16:57;6.50;99.90
1361;DHT22;674;45.552;-122.600;2023-12-22T13:19:26;6.10;99.90
1361;DHT22;674;45.552;-122.600;2023-12-22T13:21:56;6.10;99.90
1361;DHT22;674;45.552;-122.600;2023-12-22T13:24:24;6.20;99.90
1361;DHT22;674;45.552;-122.600;2023-12-22T13:27:01;6.30;99.90
1361;DHT22;674;45.552;-122.600;2023-12-22T13:29:30;6.10;99.90
1361;DHT22;674;45.552;-122.600;2023-12-22T13:32:15;6.10;99.90
1361;DHT22;674;45.552;-122.600;2023-12-22T13:34:51;6.20;99.90
1361;DHT22;674;45.552;-122.600;2023-12-22T13:37:20;6.30;99.90
1361;DHT22;674;45.552;-122.600;2023-12-22T13:39:50;6.30;99.90
1361;DHT22;674;45.552;-122.600;2023-12-22T13:42:20;6.50;99.90
1361;DHT22;674;45.552;-122.600;2023-12-22T13:44:49;6.50;99.90
1361;DHT22;674;45.552;-122.600;2023-12-22T13:47:20;6.30;99.90
1361;DHT22;674;45.552;-122.600;2023-12-22T13:49:49;6.20;99.90
1361;DHT22;674;45.552;-122.600;2023-12-22T13:52:31;6.10;99.90
1361;DHT22;674;45.552;-122.600;2023-12-22T13:55:13;6.20;99.90
1361;DHT22;674;45.552;-122.600;2023-12-22T13:57:43;6.30;99.90
1361;DHT22;674;45.552;-122.600;2023-12-22T14:02:52;6.00;99.90
1361;DHT22;674;45.552;-122.600;2023-12-22T14:05:24;6.20;99.90
1361;DHT22;674;45.552;-122.600;2023-12-22T14:07:55;6.20;99.90
1361;DHT22;674;45.552;-122.600;2023-12-22T14:10:23;6.30;99.90
1361;DHT22;674;45.552;-122.600;2023-12-22T14:12:52;6.30;99.90
1361;DHT22;674;45.552;-122.600;2023-12-22T14:15:21;6.00;99.90
1361;DHT22;674;45.552;-122.600;2023-12-22T14:17:57;6.60;99.90
1361;DHT22;674;45.552;-122.600;2023-12-22T14:20:26;6.50;99.90
1361;DHT22;674;45.552;-122.600;2023-12-22T14:22:55;6.10;99.90
1361;DHT22;674;45.552;-122.600;2023-12-22T14:25:23;6.30;99.90
1361;DHT22;674;45.552;-122.600;2023-12-22T14:27:54;6.20;99.90
1361;DHT22;674;45.552;-122.600;2023-12-22T14:30:25;6.20;99.90
1361;DHT22;674;45.552;-122.600;2023-12-22T14:32:54;6.20;99.90
1361;DHT22;674;45.552;-122.600;2023-12-22T14:35:22;6.10;99.90
1361;DHT22;674;45.552;-122.600;2023-12-22T14:37:51;6.20;99.90
1361;DHT22;674;45.552;-122.600;2023-12-22T14:40:20;6.20;99.90
1361;DHT22;674;45.552;-122.600;2023-12-22T14:42:49;6.50;99.90
1361;DHT22;674;45.552;-122.600;2023-12-22T14:45:17;6.60;99.90
1361;DHT22;674;45.552;-122.600;2023-12-22T14:47:46;6.30;99.90
1361;DHT22;674;45.552;-122.600;2023-12-22T14:50:16;6.60;99.90
1361;DHT22;674;45.552;-122.600;2023-12-22T14:52:46;6.40;99.90
1361;DHT22;674;45.552;-122.600;2023-12-22T14:55:15;6.60;99.90
1361;DHT22;674;45.552;-122.600;2023-12-22T14:57:46;6.50;99.90
1361;DHT22;674;45.552;-122.600;2023-12-22T15:00:15;6.70;99.90
1361;DHT22;674;45.552;-122.600;2023-12-22T15:02:44;6.50;99.90
1361;DHT22;674;45.552;-122.600;2023-12-22T15:05:13;6.30;99.90
1361;DHT22;674;45.552;-122.600;2023-12-22T15:07:42;6.50;99.90
1361;DHT22;674;45.552;-122.600;2023-12-22T15:10:11;6.50;99.90
1361;DHT22;674;45.552;-122.600;2023-12-22T15:12:39;6.40;99.90
1361;DHT22;674;45.552;-122.600;2023-12-22T15:15:10;6.60;99.90
1361;DHT22;674;45.552;-122.600;2023-12-22T15:17:39;6.30;99.90
1361;DHT22;674;45.552;-122.600;2023-12-22T15:20:08;6.40;99.90
1361;DHT22;674;45.552;-122.600;2023-12-22T15:22:39;6.30;99.90
1361;DHT22;674;45.552;-122.600;2023-12-22T15:25:08;6.50;99.90
1361;DHT22;674;45.552;-122.600;2023-12-22T15:27:36;6.60;99.90
1361;DHT22;674;45.552;-122.600;2023-12-22T15:30:07;6.30;99.90
1361;DHT22;674;45.552;-122.600;2023-12-22T15:32:35;6.30;99.90
1361;DHT22;674;45.552;-122.600;2023-12-22T15:35:04;6.30;99.90
1361;DHT22;674;45.552;-122.600;2023-12-22T15:37:33;6.20;99.90
1361;DHT22;674;45.552;-122.600;2023-12-22T15:40:02;6.10;99.90
1361;DHT22;674;45.552;-122.600;2023-12-22T15:42:31;6.20;99.90
1361;DHT22;674;45.552;-122.600;2023-12-22T15:45:00;5.80;99.90
1361;DHT22;674;45.552;-122.600;2023-12-22T15:47:29;5.70;99.90
1361;DHT22;674;45.552;-122.600;2023-12-22T15:49:57;6.00;99.90
1361;DHT22;674;45.552;-122.600;2023-12-22T15:52:26;5.90;99.90
1361;DHT22;674;45.552;-122.600;2023-12-22T15:54:54;5.60;99.90
1361;DHT22;674;45.552;-122.600;2023-12-22T15:57:23;5.90;99.90
1361;DHT22;674;45.552;-122.600;2023-12-22T15:59:52;5.70;99.90
1361;DHT22;674;45.552;-122.600;2023-12-22T16:02:20;5.80;99.90
1361;DHT22;674;45.552;-122.600;2023-12-22T16:04:49;5.70;99.90
1361;DHT22;674;45.552;-122.600;2023-12-22T16:07:17;5.60;99.90
1361;DHT22;674;45.552;-122.600;2023-12-22T16:09:45;5.70;99.90
1361;DHT22;674;45.552;-122.600;2023-12-22T16:12:14;5.80;99.90
1361;DHT22;674;45.552;-122.600;2023-12-22T16:14:42;6.00;99.90
1361;DHT22;674;45.552;-122.600;2023-12-22T16:17:11;5.70;99.90
1361;DHT22;674;45.552;-122.600;2023-12-22T16:19:40;6.00;99.90